Time;durP1;ratioP1;P1;durP2;ratioP2;P2;SDS_P1;SDS_P2;PMS_P1;PMS_P2;Temp;Humidity;BMP_temperature;BMP_pressure;BME280_temperature;BME280_humidity;BME280_pressure;Samples;Min_cycle;Max_cycle;Signal;HPM_P1;HPM_P2
2022/01/26 00:00:57;;;;;;;4.33;4.03;;;16.30;63.70;;;;;;5052458;28;44265;-75
2022/01/26 00:06:18;;;;;;;3.90;3.80;;;16.30;64.00;;;;;;5078580;28;43904;-75
2022/01/26 00:08:48;;;;;;;3.90;3.80;;;16.20;64.00;;;;;;5050291;28;44036;-75
2022/01/26 00:11:16;;;;;;;3.77;3.67;;;16.20;64.80;;;;;;5033052;28;44384;-78
2022/01/26 00:13:44;;;;;;;3.80;3.70;;;16.20;64.20;;;;;;5049988;28;43381;-75
2022/01/26 00:16:22;;;;;;;4.03;3.93;;;16.20;64.40;;;;;;5032701;28;43971;-75
2022/01/26 00:18:53;;;;;;;3.80;3.70;;;16.30;64.20;;;;;;5051036;28;44135;-76
2022/01/26 00:21:34;;;;;;;3.50;3.40;;;16.40;63.70;;;;;;5050349;28;44094;-76
2022/01/26 00:24:23;;;;;;;3.60;3.50;;;16.40;63.40;;;;;;5066254;28;43888;-76
2022/01/26 00:27:22;;;;;;;3.77;3.67;;;16.40;63.50;;;;;;5039497;28;44144;-76
2022/01/26 00:30:00;;;;;;;4.13;4.03;;;16.30;63.50;;;;;;5066211;28;44076;-77
2022/01/26 00:41:03;;;;;;;3.97;3.87;;;16.20;64.10;;;;;;5065941;28;43913;-76
2022/01/26 00:43:32;;;;;;;4.00;3.90;;;16.20;64.20;;;;;;5050238;28;43835;-76
2022/01/26 00:46:01;;;;;;;3.77;3.67;;;16.10;64.90;;;;;;5066455;28;44019;-76
2022/01/26 00:48:32;;;;;;;3.97;3.87;;;16.10;64.30;;;;;;5049637;28;43515;-76
2022/01/26 00:51:03;;;;;;;3.90;3.80;;;16.10;64.30;;;;;;5049634;28;44671;-76
2022/01/26 00:53:36;;;;;;;4.00;3.90;;;16.10;64.30;;;;;;5066909;28;44640;-74
2022/01/26 00:56:05;;;;;;;4.10;4.00;;;16.10;64.40;;;;;;5032943;28;44096;-75
2022/01/26 00:58:33;;;;;;;3.67;3.57;;;16.20;64.40;;;;;;5065776;28;44203;-75
2022/01/26 01:01:03;;;;;;;3.83;3.73;;;16.40;64.10;;;;;;5032377;28;44137;-75
2022/01/26 01:03:33;;;;;;;3.67;3.57;;;16.50;63.50;;;;;;5065465;28;43959;-76
2022/01/26 01:06:06;;;;;;;3.87;3.77;;;16.60;63.20;;;;;;5049243;28;43469;-75
2022/01/26 01:08:35;;;;;;;3.73;3.63;;;16.60;62.80;;;;;;5043848;28;44043;-78
2022/01/26 01:11:04;;;;;;;3.70;3.60;;;16.60;62.80;;;;;;5065328;28;43991;-75
2022/01/26 01:13:35;;;;;;;3.67;3.57;;;16.50;63.00;;;;;;5032360;28;43905;-75
2022/01/26 01:16:03;;;;;;;3.70;3.60;;;16.50;63.20;;;;;;5032959;28;43973;-75
2022/01/26 01:18:39;;;;;;;3.80;3.70;;;16.40;63.30;;;;;;5065907;28;43820;-75
2022/01/26 01:29:57;;;;;;;3.63;3.53;;;16.20;63.90;;;;;;5062050;28;43975;-75
2022/01/26 01:32:32;;;;;;;3.70;3.60;;;16.20;64.00;;;;;;5064982;28;44249;-77
2022/01/26 01:35:00;;;;;;;3.90;3.80;;;16.20;64.10;;;;;;5033610;28;44075;-76
2022/01/26 01:37:29;;;;;;;3.70;3.60;;;16.20;64.40;;;;;;5064656;28;44172;-76
2022/01/26 01:39:58;;;;;;;4.10;4.00;;;16.30;64.10;;;;;;5047280;28;44123;-77
2022/01/26 01:42:27;;;;;;;4.30;4.20;;;16.40;63.60;;;;;;5031914;28;43953;-77
2022/01/26 01:44:56;;;;;;;4.13;3.93;;;16.40;63.40;;;;;;5048206;28;43384;-77
2022/01/26 01:47:25;;;;;;;3.80;3.70;;;16.40;63.40;;;;;;5047839;28;44038;-77
2022/01/26 01:49:53;;;;;;;4.50;4.30;;;16.30;63.40;;;;;;5065152;28;44116;-76
2022/01/26 01:52:22;;;;;;;4.60;4.40;;;16.30;63.60;;;;;;5031598;28;44115;-76
2022/01/26 01:54:54;;;;;;;4.40;4.20;;;16.30;63.80;;;;;;5031353;28;43934;-76
2022/01/26 01:57:25;;;;;;;4.30;4.20;;;16.20;63.80;;;;;;5049877;28;43458;-76
2022/01/26 01:59:54;;;;;;;4.23;4.03;;;16.20;64.00;;;;;;5048444;28;43571;-76
2022/01/26 02:02:22;;;;;;;4.73;4.53;;;16.20;64.00;;;;;;5048960;28;44104;-74
2022/01/26 02:04:51;;;;;;;4.93;4.73;;;16.10;64.00;;;;;;5048641;28;43976;-74
2022/01/26 02:07:19;;;;;;;4.27;4.13;;;16.10;64.10;;;;;;5048210;28;43320;-74
2022/01/26 02:09:47;;;;;;;4.10;4.00;;;16.10;64.10;;;;;;5031880;28;44023;-74
2022/01/26 02:12:18;;;;;;;4.40;4.30;;;16.10;64.20;;;;;;5030868;28;44047;-74
2022/01/26 02:14:52;;;;;;;4.07;3.97;;;16.10;64.20;;;;;;5066312;28;44054;-74
2022/01/26 02:17:36;;;;;;;4.17;4.07;;;16.10;64.40;;;;;;5036349;28;44011;-74
2022/01/26 02:51:07;;;;;;;4.83;4.70;;;16.20;63.80;;;;;;5062630;28;43796;-73
2022/01/26 02:56:31;;;;;;;4.57;4.47;;;16.10;63.80;;;;;;5046922;28;43608;-72
2022/01/26 02:59:17;;;;;;;4.70;4.50;;;16.10;64.20;;;;;;5064127;28;44166;-73
2022/01/26 03:01:53;;;;;;;4.83;4.63;;;16.30;64.00;;;;;;5049571;28;43939;-74
2022/01/26 03:04:29;;;;;;;4.70;4.50;;;16.40;63.50;;;;;;5033034;28;44024;-75
2022/01/26 03:07:03;;;;;;;4.47;4.27;;;16.40;63.30;;;;;;5028146;28;44331;-73
2022/01/26 03:09:37;;;;;;;5.00;4.80;;;16.30;63.20;;;;;;5031889;28;43515;-73
2022/01/26 03:12:09;;;;;;;4.70;4.50;;;16.30;63.50;;;;;;5063682;28;44382;-73
2022/01/26 03:14:46;;;;;;;4.70;4.50;;;16.30;63.60;;;;;;5064181;28;43563;-73
2022/01/26 03:17:29;;;;;;;4.90;4.70;;;16.20;63.70;;;;;;5063682;28;43868;-73
2022/01/26 03:20:04;;;;;;;4.93;4.73;;;16.20;63.90;;;;;;5046550;28;45577;-73
2022/01/26 03:28:23;;;;;;;4.83;4.63;;;16.10;64.10;;;;;;5057350;28;44678;-74
2022/01/26 03:31:32;;;;;;;4.70;4.53;;;16.10;64.30;;;;;;5047453;28;44370;-74
2022/01/26 03:34:01;;;;;;;4.47;4.33;;;16.00;64.20;;;;;;5044138;28;43829;-74
2022/01/26 03:36:32;;;;;;;5.20;5.00;;;16.00;64.20;;;;;;5050650;28;44157;-74
2022/01/26 03:39:06;;;;;;;4.87;4.67;;;16.00;64.50;;;;;;5048980;28;43979;-74
2022/01/26 03:41:43;;;;;;;5.10;4.90;;;16.10;64.30;;;;;;5034950;28;44019;-74
2022/01/26 03:44:11;;;;;;;4.87;4.60;;;16.30;64.00;;;;;;5068076;28;43957;-74
2022/01/26 03:46:40;;;;;;;5.50;5.20;;;16.40;63.50;;;;;;5033932;28;44118;-74
2022/01/26 03:49:08;;;;;;;5.00;4.80;;;16.50;63.10;;;;;;5050679;28;43824;-74
2022/01/26 03:51:36;;;;;;;5.00;4.80;;;16.50;62.90;;;;;;5049725;28;43987;-73
2022/01/26 03:54:05;;;;;;;5.13;4.93;;;16.50;63.00;;;;;;5066601;28;44015;-73
2022/01/26 03:56:33;;;;;;;5.13;4.93;;;16.40;63.10;;;;;;5067070;28;43858;-74
2022/01/26 03:59:03;;;;;;;5.27;5.07;;;16.30;63.20;;;;;;5033421;28;45833;-74
2022/01/26 04:01:31;;;;;;;5.03;4.73;;;16.30;63.50;;;;;;5068136;28;43398;-75
2022/01/26 04:04:00;;;;;;;5.13;4.93;;;16.20;63.50;;;;;;5066633;28;43398;-73
2022/01/26 04:06:30;;;;;;;5.27;5.07;;;16.20;63.70;;;;;;5067003;28;44011;-74
2022/01/26 04:08:58;;;;;;;5.03;4.83;;;16.20;63.80;;;;;;5049809;28;45201;-74
2022/01/26 04:14:15;;;;;;;5.07;4.87;;;16.10;63.80;;;;;;5038356;28;43996;-74
2022/01/26 04:16:44;;;;;;;5.07;4.87;;;16.10;63.90;;;;;;5066831;28;43951;-74
2022/01/26 04:19:12;;;;;;;5.20;5.00;;;16.10;64.10;;;;;;5068033;28;43965;-74
2022/01/26 04:24:27;;;;;;;5.70;5.40;;;16.30;63.70;;;;;;5061946;28;44084;-74
2022/01/26 04:27:00;;;;;;;5.37;5.13;;;16.40;63.30;;;;;;5050351;28;44123;-74
2022/01/26 04:29:32;;;;;;;4.93;4.73;;;16.30;63.20;;;;;;5049832;28;43912;-74
2022/01/26 04:32:01;;;;;;;5.13;4.93;;;16.30;63.30;;;;;;5049501;28;44681;-74
2022/01/26 04:34:29;;;;;;;5.10;4.90;;;16.30;63.40;;;;;;5032397;28;44063;-75
2022/01/26 04:37:03;;;;;;;4.90;4.70;;;16.20;63.50;;;;;;5033112;28;43424;-75
2022/01/26 04:39:37;;;;;;;5.03;4.83;;;16.20;63.70;;;;;;5065691;28;44014;-72
2022/01/26 04:42:11;;;;;;;4.87;4.67;;;16.20;63.80;;;;;;5034532;28;43943;-75
2022/01/26 04:44:52;;;;;;;5.20;5.00;;;16.10;63.80;;;;;;5061471;28;44018;-74
2022/01/26 04:47:20;;;;;;;5.10;4.90;;;16.10;63.80;;;;;;5068330;28;44186;-74
2022/01/26 04:49:49;;;;;;;5.37;5.17;;;16.10;64.00;;;;;;5032198;28;43958;-75
2022/01/26 04:52:17;;;;;;;4.63;4.43;;;16.10;64.00;;;;;;5048365;28;43975;-75
2022/01/26 04:54:45;;;;;;;5.37;5.07;;;16.10;64.00;;;;;;5032530;28;43965;-75
2022/01/26 04:57:13;;;;;;;5.13;4.93;;;16.10;64.10;;;;;;5032888;28;44069;-73
2022/01/26 04:59:41;;;;;;;4.77;4.67;;;16.10;64.20;;;;;;5032340;28;44197;-73
2022/01/26 05:02:11;;;;;;;5.30;5.10;;;16.10;64.40;;;;;;5049029;28;43442;-75
2022/01/26 05:04:40;;;;;;;5.23;5.03;;;16.20;64.00;;;;;;5048811;28;43987;-75
2022/01/26 05:07:09;;;;;;;5.50;5.23;;;16.40;63.50;;;;;;5049429;28;44002;-75
2022/01/26 05:09:37;;;;;;;5.70;5.40;;;16.50;63.00;;;;;;5064862;28;45020;-73
2022/01/26 05:12:07;;;;;;;5.20;5.00;;;16.60;62.70;;;;;;5032560;28;43966;-73
2022/01/26 05:14:35;;;;;;;5.43;5.23;;;16.60;62.50;;;;;;5048359;28;44052;-74
2022/01/26 05:17:05;;;;;;;4.93;4.73;;;16.60;62.50;;;;;;5016952;28;43598;-74
2022/01/26 05:19:35;;;;;;;5.23;5.03;;;16.50;62.70;;;;;;5048467;28;45547;-76
2022/01/26 05:22:04;;;;;;;5.90;5.40;;;16.40;62.90;;;;;;5067172;28;43871;-79
2022/01/26 05:24:32;;;;;;;5.40;5.20;;;16.30;63.00;;;;;;5048316;28;43933;-73
2022/01/26 05:27:01;;;;;;;5.53;5.23;;;16.30;63.20;;;;;;5065634;28;44212;-74
2022/01/26 05:29:29;;;;;;;5.43;5.20;;;16.30;63.40;;;;;;5028562;28;43957;-74
2022/01/26 05:31:57;;;;;;;5.00;4.80;;;16.20;63.50;;;;;;5063333;28;44013;-75
2022/01/26 05:34:26;;;;;;;5.40;5.20;;;16.20;63.60;;;;;;5032471;28;43508;-75
2022/01/26 05:36:56;;;;;;;5.17;4.87;;;16.20;63.70;;;;;;5032520;28;44015;-73
2022/01/26 05:39:24;;;;;;;5.53;5.23;;;16.10;63.70;;;;;;5047875;28;45254;-73
2022/01/26 05:41:53;;;;;;;6.10;5.80;;;16.10;63.90;;;;;;5048152;28;44028;-74
2022/01/26 05:44:21;;;;;;;5.67;5.37;;;16.20;64.00;;;;;;5065386;28;43927;-73
2022/01/26 05:46:50;;;;;;;5.50;5.30;;;16.30;63.50;;;;;;5012809;28;43921;-74
2022/01/26 05:49:19;;;;;;;4.87;4.67;;;16.30;63.10;;;;;;5063950;28;44086;-75
2022/01/26 05:51:47;;;;;;;5.40;5.00;;;16.30;63.00;;;;;;5064469;28;43968;-74
2022/01/26 05:54:17;;;;;;;5.43;5.13;;;16.30;63.10;;;;;;5047561;28;43463;-73
2022/01/26 05:56:47;;;;;;;5.10;4.90;;;16.30;63.30;;;;;;5081513;28;43944;-73
2022/01/26 05:59:16;;;;;;;5.50;5.20;;;16.20;63.30;;;;;;5064679;28;46669;-73
2022/01/26 06:01:44;;;;;;;5.30;5.10;;;16.20;63.50;;;;;;5081132;28;43967;-73
2022/01/26 06:04:12;;;;;;;5.43;5.23;;;16.10;63.50;;;;;;5064980;28;43966;-73
2022/01/26 06:06:41;;;;;;;5.10;4.90;;;16.10;63.60;;;;;;5064520;28;43997;-73
2022/01/26 06:09:10;;;;;;;5.43;5.13;;;16.10;63.80;;;;;;5081000;28;45434;-74
2022/01/26 06:11:40;;;;;;;5.37;5.17;;;16.10;63.80;;;;;;5047821;28;43984;-75
2022/01/26 06:14:08;;;;;;;5.40;5.10;;;16.00;63.80;;;;;;5041640;28;43523;-72
2022/01/26 06:16:36;;;;;;;5.53;5.27;;;16.10;63.90;;;;;;5057956;28;43890;-73
2022/01/26 06:19:05;;;;;;;5.27;5.07;;;16.10;64.00;;;;;;5058195;28;45175;-73
2022/01/26 06:21:34;;;;;;;5.47;5.27;;;16.00;64.10;;;;;;5021376;28;43404;-75
2022/01/26 06:24:02;;;;;;;5.73;5.50;;;16.10;64.10;;;;;;5041686;28;43914;-75
2022/01/26 06:26:31;;;;;;;5.17;4.90;;;16.30;63.80;;;;;;5064897;28;44125;-74
2022/01/26 06:29:01;;;;;;;5.37;5.07;;;16.40;63.30;;;;;;5064149;28;44965;-73
2022/01/26 06:31:30;;;;;;;4.70;4.50;;;16.50;62.80;;;;;;5064284;28;44782;-73
2022/01/26 06:34:01;;;;;;;5.07;4.77;;;16.50;62.50;;;;;;5047447;28;43495;-73
2022/01/26 06:36:30;;;;;;;5.07;4.87;;;16.50;62.50;;;;;;5032240;28;44093;-74
2022/01/26 06:38:58;;;;;;;4.87;4.67;;;16.50;62.70;;;;;;5030905;28;44680;-74
2022/01/26 06:41:28;;;;;;;4.90;4.70;;;16.40;62.90;;;;;;5030820;28;44078;-73
2022/01/26 06:44:03;;;;;;;5.23;5.03;;;16.30;63.00;;;;;;5046907;28;43933;-74
2022/01/26 06:46:43;;;;;;;4.77;4.57;;;16.30;63.20;;;;;;5049428;28;43499;-73
2022/01/26 06:49:30;;;;;;;4.93;4.73;;;16.20;63.40;;;;;;5047260;28;44964;-75
2022/01/26 06:51:58;;;;;;;5.20;5.00;;;16.20;63.50;;;;;;5050055;28;43968;-73
2022/01/26 06:54:28;;;;;;;4.87;4.67;;;16.10;63.50;;;;;;5057747;28;44039;-74
2022/01/26 06:56:56;;;;;;;4.93;4.73;;;16.10;63.70;;;;;;5047892;28;43478;-74
2022/01/26 06:59:24;;;;;;;4.93;4.73;;;16.10;63.70;;;;;;5030914;28;44151;-73
2022/01/26 07:01:54;;;;;;;4.97;4.77;;;16.10;63.90;;;;;;5064876;28;43965;-75
2022/01/26 07:04:23;;;;;;;4.90;4.70;;;16.10;64.00;;;;;;5047613;28;43887;-72
2022/01/26 07:06:51;;;;;;;5.20;5.00;;;16.20;63.60;;;;;;5033237;28;43638;-75
2022/01/26 07:09:19;;;;;;;5.10;4.90;;;16.30;63.20;;;;;;5034246;28;44543;-74
2022/01/26 07:11:48;;;;;;;4.77;4.57;;;16.30;63.10;;;;;;5050749;28;44085;-74
2022/01/26 07:14:26;;;;;;;5.07;4.77;;;16.30;63.20;;;;;;5069058;28;43408;-74
2022/01/26 07:19:52;;;;;;;4.80;4.60;;;16.20;63.50;;;;;;5021853;28;45666;-73
2022/01/26 07:22:21;;;;;;;4.80;4.60;;;16.20;63.60;;;;;;5047782;28;43975;-74
2022/01/26 07:24:49;;;;;;;4.80;4.60;;;16.10;63.60;;;;;;5047587;28;43993;-75
2022/01/26 07:27:18;;;;;;;4.33;4.13;;;16.10;63.70;;;;;;5060991;28;43427;-74
2022/01/26 07:29:49;;;;;;;4.70;4.50;;;16.10;63.80;;;;;;5026349;28;43923;-74
2022/01/26 07:32:19;;;;;;;4.60;4.50;;;16.10;63.80;;;;;;5045445;28;43969;-75
2022/01/26 07:34:48;;;;;;;5.00;4.80;;;16.10;63.90;;;;;;5033380;28;44167;-74
2022/01/26 07:37:17;;;;;;;4.90;4.70;;;16.10;63.90;;;;;;5050748;28;44062;-74
2022/01/26 07:39:49;;;;;;;4.63;4.43;;;16.10;64.00;;;;;;5033493;28;43922;-74
2022/01/26 07:42:17;;;;;;;4.13;3.93;;;16.00;64.00;;;;;;5050653;28;44831;-74
2022/01/26 07:44:48;;;;;;;4.67;4.47;;;16.10;64.20;;;;;;5050242;28;43957;-74
2022/01/26 07:47:18;;;;;;;4.80;4.60;;;16.20;63.90;;;;;;5034855;28;44299;-74
2022/01/26 07:49:46;;;;;;;4.33;4.13;;;16.30;63.30;;;;;;5049654;28;44985;-74
2022/01/26 07:52:15;;;;;;;5.10;4.80;;;16.50;63.00;;;;;;5033264;28;44419;-74
2022/01/26 07:54:45;;;;;;;4.63;4.43;;;16.50;62.60;;;;;;5033937;28;43956;-73
2022/01/26 07:57:13;;;;;;;4.50;4.30;;;16.50;62.40;;;;;;5034458;28;43436;-74
2022/01/26 07:59:41;;;;;;;4.47;4.37;;;16.50;62.60;;;;;;5066115;28;43974;-73
2022/01/26 08:02:09;;;;;;;4.70;4.50;;;16.40;62.80;;;;;;5033351;28;44132;-73
2022/01/26 08:04:40;;;;;;;4.20;4.10;;;16.30;63.00;;;;;;5033026;28;44043;-76
2022/01/26 08:07:08;;;;;;;4.73;4.53;;;16.30;63.20;;;;;;5067131;28;44216;-75
2022/01/26 08:09:42;;;;;;;4.67;4.47;;;16.20;63.30;;;;;;5032901;28;43903;-75
2022/01/26 08:12:11;;;;;;;4.97;4.77;;;16.20;63.40;;;;;;5066418;28;45603;-74
2022/01/26 08:14:40;;;;;;;4.57;4.37;;;16.10;63.50;;;;;;5049275;28;43420;-75
2022/01/26 08:17:09;;;;;;;3.80;3.70;;;16.10;63.50;;;;;;5066795;28;43897;-76
2022/01/26 08:19:40;;;;;;;4.03;3.90;;;16.10;63.60;;;;;;5032379;28;44269;-73
2022/01/26 08:22:11;;;;;;;4.57;4.37;;;16.10;63.70;;;;;;5066087;28;43909;-73
2022/01/26 08:24:40;;;;;;;4.63;4.53;;;16.10;63.90;;;;;;5065809;28;44099;-74
2022/01/26 08:27:11;;;;;;;4.20;4.10;;;16.20;63.80;;;;;;5049940;28;44077;-74
2022/01/26 08:29:42;;;;;;;4.20;4.10;;;16.30;63.30;;;;;;5033043;28;46625;-74
2022/01/26 08:32:11;;;;;;;4.33;4.13;;;16.30;63.00;;;;;;5031091;28;43864;-74
2022/01/26 08:34:40;;;;;;;4.00;3.90;;;16.30;63.10;;;;;;5039173;28;43946;-74
2022/01/26 08:37:09;;;;;;;4.67;4.47;;;16.30;63.30;;;;;;5066547;28;43953;-73
2022/01/26 08:39:38;;;;;;;4.70;4.50;;;16.20;63.30;;;;;;5026428;28;45187;-74
2022/01/26 08:42:07;;;;;;;5.00;4.60;;;16.20;63.50;;;;;;5026454;28;43987;-74
2022/01/26 08:44:35;;;;;;;4.60;4.40;;;16.10;63.50;;;;;;5066000;28;43340;-75
2022/01/26 08:47:04;;;;;;;4.73;4.50;;;16.10;63.60;;;;;;5049733;28;43998;-75
2022/01/26 08:49:33;;;;;;;4.10;3.97;;;16.10;63.70;;;;;;5048722;28;44089;-74
2022/01/26 08:52:02;;;;;;;4.30;4.10;;;16.10;63.80;;;;;;5065950;28;43912;-74
2022/01/26 08:54:31;;;;;;;4.50;4.30;;;16.00;63.80;;;;;;5048825;28;44075;-73
2022/01/26 08:56:59;;;;;;;4.07;3.97;;;16.00;63.90;;;;;;5032718;28;44077;-76
2022/01/26 08:59:28;;;;;;;7.10;4.97;;;16.00;63.90;;;;;;5048991;28;45500;-73
2022/01/26 09:01:56;;;;;;;5.40;4.90;;;16.00;63.90;;;;;;5049398;28;43929;-78
2022/01/26 09:04:25;;;;;;;4.43;4.33;;;16.00;64.00;;;;;;5048732;28;43899;-75
2022/01/26 09:06:56;;;;;;;4.90;4.50;;;16.10;63.80;;;;;;5032873;28;43939;-73
2022/01/26 09:09:26;;;;;;;5.00;4.70;;;16.30;63.50;;;;;;5032213;28;43992;-75
2022/01/26 09:11:57;;;;;;;4.97;4.67;;;16.40;62.90;;;;;;5065194;28;44417;-75
2022/01/26 09:14:28;;;;;;;5.40;4.90;;;16.60;62.60;;;;;;5048957;28;43991;-74
2022/01/26 09:16:56;;;;;;;4.87;4.47;;;16.60;62.20;;;;;;5049806;28;44023;-75
2022/01/26 09:19:28;;;;;;;5.00;4.70;;;16.60;62.10;;;;;;5048759;28;44023;-75
2022/01/26 09:21:56;;;;;;;5.10;4.80;;;16.50;62.20;;;;;;5032974;28;43904;-73
2022/01/26 09:24:27;;;;;;;5.20;4.80;;;16.40;62.50;;;;;;5048437;28;43433;-75
2022/01/26 09:26:55;;;;;;;4.87;4.67;;;16.30;62.60;;;;;;5066701;28;43689;-73
2022/01/26 09:29:24;;;;;;;4.80;4.50;;;16.30;62.90;;;;;;5030968;28;43966;-73
2022/01/26 09:31:52;;;;;;;5.10;4.80;;;16.20;63.00;;;;;;5064984;28;45627;-73
2022/01/26 09:34:22;;;;;;;5.23;4.97;;;16.20;63.20;;;;;;5065845;28;43490;-74
2022/01/26 09:36:50;;;;;;;5.10;4.73;;;16.20;63.40;;;;;;5065568;28;43462;-73
2022/01/26 09:39:20;;;;;;;5.63;5.23;;;16.10;63.50;;;;;;5064799;28;44065;-73
2022/01/26 09:41:50;;;;;;;5.33;5.03;;;16.10;63.50;;;;;;5066269;28;44208;-73
2022/01/26 09:44:19;;;;;;;5.13;4.73;;;16.10;63.80;;;;;;5048373;28;44295;-73
2022/01/26 09:46:48;;;;;;;5.53;5.10;;;16.20;63.70;;;;;;5048888;28;43728;-73
2022/01/26 09:49:17;;;;;;;5.50;5.10;;;16.30;63.20;;;;;;5048043;28;44058;-72
2022/01/26 09:51:48;;;;;;;4.70;4.50;;;16.30;63.00;;;;;;5015418;28;44383;-73
2022/01/26 09:54:19;;;;;;;5.50;5.10;;;16.30;63.10;;;;;;5032881;28;43899;-73
2022/01/26 09:56:51;;;;;;;5.07;4.80;;;16.30;63.30;;;;;;5065236;28;43979;-73
2022/01/26 09:59:19;;;;;;;5.00;4.73;;;16.20;63.30;;;;;;5058742;28;44037;-75
2022/01/26 10:01:48;;;;;;;5.20;4.90;;;16.20;63.50;;;;;;5075051;28;44010;-75
2022/01/26 10:04:22;;;;;;;5.43;5.03;;;16.10;63.60;;;;;;5058640;28;43394;-73
2022/01/26 10:07:08;;;;;;;5.30;5.00;;;16.10;63.80;;;;;;5032570;28;43895;-73
2022/01/26 10:09:49;;;;;;;5.07;4.80;;;16.10;64.00;;;;;;5063725;28;43884;-75
2022/01/26 10:18:14;;;;;;;5.10;4.80;;;16.00;64.10;;;;;;5023485;28;43989;-74
2022/01/26 10:20:44;;;;;;;5.20;4.90;;;16.00;64.20;;;;;;4990782;28;44087;-74
2022/01/26 10:23:16;;;;;;;5.20;5.00;;;16.00;64.50;;;;;;5010737;28;43927;-74
2022/01/26 10:25:45;;;;;;;5.67;5.37;;;16.10;64.50;;;;;;5047958;28;44044;-73
2022/01/26 10:28:16;;;;;;;5.07;4.87;;;16.20;64.30;;;;;;5066096;28;43996;-73
2022/01/26 10:30:45;;;;;;;4.93;4.70;;;16.40;63.80;;;;;;5047738;28;46694;-73
2022/01/26 10:33:15;;;;;;;5.17;4.97;;;16.50;63.40;;;;;;5047490;28;44024;-73
2022/01/26 10:35:44;;;;;;;5.30;5.00;;;16.50;63.00;;;;;;5063800;28;43514;-73
2022/01/26 10:38:12;;;;;;;4.80;4.60;;;16.50;63.00;;;;;;5031551;28;44072;-75
2022/01/26 10:40:40;;;;;;;4.77;4.57;;;16.40;63.00;;;;;;5063271;28;44164;-74
2022/01/26 10:43:11;;;;;;;5.03;4.83;;;16.30;63.20;;;;;;5013410;28;44078;-73
2022/01/26 10:45:54;;;;;;;5.00;4.73;;;16.30;63.40;;;;;;5064284;28;43454;-73
2022/01/26 10:48:36;;;;;;;5.00;4.80;;;16.30;63.60;;;;;;5064902;28;44080;-77
2022/01/26 10:54:10;;;;;;;6.83;5.50;;;16.20;64.10;;;;;;5060936;28;44441;-75
2022/01/26 10:56:40;;;;;;;9.67;4.87;;;16.10;63.80;;;;;;5049151;28;43875;-77
2022/01/26 10:59:09;;;;;;;5.03;4.53;;;16.10;64.10;;;;;;5047936;28;43996;-74
2022/01/26 11:01:40;;;;;;;5.30;4.90;;;16.10;64.10;;;;;;5063478;28;43948;-75
2022/01/26 11:04:10;;;;;;;5.07;4.77;;;16.10;64.20;;;;;;5063846;28;43877;-74
2022/01/26 11:06:39;;;;;;;5.50;5.10;;;16.10;64.30;;;;;;5063702;28;44005;-75
2022/01/26 11:09:12;;;;;;;5.60;5.17;;;16.20;63.80;;;;;;5064413;28;44030;-76
2022/01/26 11:11:41;;;;;;;6.27;4.77;;;16.30;63.20;;;;;;5057299;28;45599;-76
2022/01/26 11:14:14;;;;;;;5.30;4.90;;;16.30;63.40;;;;;;5063869;28;43982;-76
2022/01/26 11:17:07;;;;;;;5.70;5.20;;;16.30;63.60;;;;;;5064002;28;43995;-74
2022/01/26 11:19:43;;;;;;;5.40;5.10;;;16.20;63.70;;;;;;5064067;28;44091;-74
2022/01/26 11:22:14;;;;;;;6.40;5.77;;;16.20;63.80;;;;;;5063930;28;44330;-75
2022/01/26 11:25:11;;;;;;;4.90;4.70;;;16.10;63.80;;;;;;5050844;28;44016;-74
2022/01/26 11:27:40;;;;;;;5.03;4.83;;;16.10;64.00;;;;;;5030653;28;43278;-74
2022/01/26 11:30:19;;;;;;;5.47;5.13;;;16.10;64.00;;;;;;5048026;28;44335;-72
2022/01/26 11:33:02;;;;;;;5.97;5.47;;;16.10;64.10;;;;;;5047300;28;44264;-75
2022/01/26 11:35:33;;;;;;;6.03;5.50;;;16.10;64.10;;;;;;5074587;28;44126;-74
2022/01/26 11:38:08;;;;;;;5.57;5.27;;;16.10;64.10;;;;;;5063954;28;44019;-77
2022/01/26 11:46:56;;;;;;;6.50;5.90;;;16.10;64.30;;;;;;5064168;28;44251;-73
2022/01/26 11:49:27;;;;;;;6.40;5.90;;;16.20;64.10;;;;;;5048898;28;43949;-80
2022/01/26 11:51:57;;;;;;;6.77;6.27;;;16.40;63.70;;;;;;5066171;28;44011;-78
2022/01/26 11:54:27;;;;;;;7.87;7.10;;;16.60;63.20;;;;;;5065978;28;45327;-74
2022/01/26 11:57:03;;;;;;;9.80;7.50;;;16.60;62.60;;;;;;5066562;28;44480;-74
2022/01/26 11:59:35;;;;;;;9.40;8.47;;;16.70;62.40;;;;;;5060131;28;44098;-74
2022/01/26 12:02:20;;;;;;;8.60;7.77;;;16.60;62.30;;;;;;5061260;28;43934;-74
2022/01/26 12:05:10;;;;;;;9.30;8.30;;;16.50;62.60;;;;;;5051212;28;45012;-80
2022/01/26 12:07:48;;;;;;;8.77;7.90;;;16.40;62.90;;;;;;5064120;28;43980;-75
2022/01/26 12:10:23;;;;;;;9.70;8.80;;;16.40;63.20;;;;;;5050202;28;43835;-73
2022/01/26 12:13:04;;;;;;;11.37;9.57;;;16.30;63.30;;;;;;5067114;28;43585;-76
2022/01/26 12:15:42;;;;;;;13.70;10.47;;;16.30;63.60;;;;;;5066386;28;44102;-74
2022/01/26 12:18:25;;;;;;;10.13;9.13;;;16.20;63.80;;;;;;5066323;28;43992;-73
2022/01/26 12:35:30;;;;;;;10.70;9.17;;;16.30;63.30;;;;;;5066157;28;44153;-73
2022/01/26 12:38:05;;;;;;;10.33;9.23;;;16.30;63.60;;;;;;5066000;28;44056;-74
2022/01/26 12:43:37;;;;;;;11.13;9.83;;;16.20;63.90;;;;;;5062050;28;43999;-74
2022/01/26 12:46:07;;;;;;;13.93;10.20;;;16.20;64.10;;;;;;5050611;28;43415;-73
2022/01/26 12:48:39;;;;;;;15.83;11.27;;;16.10;64.10;;;;;;5032663;28;45212;-73
2022/01/26 12:51:08;;;;;;;21.80;12.07;;;16.10;64.10;;;;;;5049674;28;44047;-73
2022/01/26 12:53:40;;;;;;;28.37;12.77;;;16.10;64.30;;;;;;5065837;28;44022;-73
2022/01/26 12:56:10;;;;;;;31.83;14.10;;;16.10;64.30;;;;;;5066297;28;43564;-73
2022/01/26 12:58:43;;;;;;;26.97;14.03;;;16.10;64.30;;;;;;5059474;28;44810;-72
2022/01/26 13:01:17;;;;;;;30.10;15.83;;;16.10;64.30;;;;;;5066683;28;43951;-74
2022/01/26 13:03:48;;;;;;;36.67;15.60;;;16.10;64.30;;;;;;5049471;28;43976;-73
2022/01/26 13:06:22;;;;;;;36.70;15.30;;;16.10;63.90;;;;;;5065923;28;44039;-74
2022/01/26 13:08:54;;;;;;;33.93;15.90;;;16.10;63.90;;;;;;5065616;28;45189;-74
2022/01/26 13:11:25;;;;;;;36.60;16.20;;;16.30;63.80;;;;;;5065861;28;43326;-74
2022/01/26 13:14:10;;;;;;;37.57;16.73;;;16.40;63.30;;;;;;5065487;28;43915;-73
2022/01/26 13:16:43;;;;;;;38.57;16.83;;;16.50;62.70;;;;;;5065370;28;44007;-73
2022/01/26 13:27:53;;;;;;;45.53;18.23;;;16.40;63.20;;;;;;5058913;28;43963;-73
2022/01/26 13:30:37;;;;;;;38.00;18.53;;;16.30;63.20;;;;;;5051016;28;44057;-74
2022/01/26 13:36:02;;;;;;;40.23;18.60;;;16.20;63.60;;;;;;5064857;28;43968;-73
2022/01/26 13:38:46;;;;;;;38.83;18.83;;;16.20;63.70;;;;;;5065487;28;44061;-73
2022/01/26 13:41:40;;;;;;;39.27;17.63;;;16.20;63.70;;;;;;5050174;28;45360;-73
2022/01/26 13:49:54;;;;;;;36.30;16.80;;;16.20;64.00;;;;;;5060206;28;44111;-73
2022/01/26 13:52:41;;;;;;;38.70;16.67;;;16.30;63.50;;;;;;5049276;28;44015;-73
2022/01/26 13:58:06;;;;;;;35.40;16.57;;;16.30;63.20;;;;;;5043525;28;44020;-80
2022/01/26 14:00:40;;;;;;;27.03;15.03;;;16.30;63.40;;;;;;5067591;28;43988;-81
2022/01/26 14:03:12;;;;;;;26.60;15.23;;;16.30;63.50;;;;;;5017023;28;43948;-73
2022/01/26 14:05:42;;;;;;;24.47;14.50;;;16.20;63.50;;;;;;5048739;28;43901;-73
2022/01/26 14:08:13;;;;;;;26.80;14.63;;;16.20;63.80;;;;;;5048928;28;43967;-73
2022/01/26 14:10:46;;;;;;;25.73;14.80;;;16.20;64.00;;;;;;5064792;28;43929;-74
2022/01/26 14:13:21;;;;;;;26.67;14.50;;;16.10;63.90;;;;;;5064432;28;44941;-74
2022/01/26 14:15:53;;;;;;;21.93;13.43;;;16.10;64.00;;;;;;5032094;28;44210;-74
2022/01/26 14:18:49;;;;;;;22.83;13.03;;;16.10;64.10;;;;;;5032532;28;44067;-73
2022/01/26 14:21:32;;;;;;;22.63;13.83;;;16.10;64.30;;;;;;5050634;28;44102;-73
2022/01/26 14:24:24;;;;;;;23.53;13.67;;;16.10;64.30;;;;;;5075159;28;43987;-74
2022/01/26 14:26:57;;;;;;;22.87;13.00;;;16.10;64.30;;;;;;5037872;28;43369;-73
2022/01/26 14:32:33;;;;;;;22.10;12.40;;;16.20;64.40;;;;;;5049368;28;43598;-73
2022/01/26 14:35:24;;;;;;;21.23;12.20;;;16.40;63.90;;;;;;5050308;28;44067;-73
2022/01/26 14:52:38;;;;;;;14.90;10.87;;;16.30;63.50;;;;;;5063773;28;43923;-74
2022/01/26 15:19:00;;;;;;;12.63;9.37;;;16.20;64.50;;;;;;4990874;28;43961;-73
2022/01/26 15:35:06;;;;;;;12.13;9.23;;;16.10;64.10;;;;;;5052399;28;43993;-74
2022/01/26 15:40:29;;;;;;;9.67;8.73;;;16.10;64.20;;;;;;5052823;28;43953;-73
2022/01/26 15:48:47;;;;;;;10.77;8.90;;;16.10;64.30;;;;;;5053044;28;43380;-73
2022/01/26 15:51:33;;;;;;;11.60;9.00;;;16.10;64.30;;;;;;5067217;28;43532;-73
2022/01/26 16:08:30;;;;;;;9.43;8.50;;;16.30;64.20;;;;;;5057307;28;45228;-73
2022/01/26 16:16:45;;;;;;;8.90;8.00;;;16.70;62.80;;;;;;5052696;28;43941;-73
2022/01/26 17:24:51;;;;;;;8.83;7.97;;;16.20;63.40;;;;;;5051238;28;44053;-74
2022/01/26 18:04:39;;;;;;;7.20;6.80;;;16.00;63.90;;;;;;5050961;28;43990;-75
2022/01/26 18:07:19;;;;;;;7.93;7.33;;;16.10;64.10;;;;;;5052551;28;43960;-74
2022/01/26 18:15:34;;;;;;;8.10;7.50;;;16.10;64.30;;;;;;5064619;28;43963;-73
2022/01/26 18:25:49;;;;;;;7.30;6.80;;;16.10;64.20;;;;;;5018889;28;44060;-73
2022/01/26 18:26:44;;;;;;;8.10;7.50;;;16.60;62.70;;;;;;5066156;28;43640;-74